createdAt,value
2018-02-17T00:02:05.829Z,47.40
2018-02-17T00:04:35.209Z,49.30
2018-02-17T00:07:03.816Z,55.03
2018-02-17T00:09:32.412Z,51.67
2018-02-17T00:12:01.734Z,47.30
2018-02-17T00:14:30.353Z,47.13
2018-02-17T00:16:59.063Z,55.70
2018-02-17T00:19:27.666Z,47.77
2018-02-17T00:21:56.268Z,54.83
2018-02-17T00:24:24.684Z,42.03
2018-02-17T00:26:53.263Z,38.17
2018-02-17T00:29:21.683Z,32.77
2018-02-17T00:31:50.264Z,35.20
2018-02-17T00:34:18.836Z,48.80
2018-02-17T00:36:47.378Z,43.97
2018-02-17T00:39:15.967Z,38.80
2018-02-17T00:41:44.742Z,37.60
2018-02-17T00:44:13.324Z,41.63
2018-02-17T00:46:41.917Z,46.07
2018-02-17T00:49:10.478Z,51.27
2018-02-17T00:51:39.080Z,48.77
2018-02-17T00:54:07.789Z,44.37
2018-02-17T00:56:36.392Z,45.97
2018-02-17T00:59:05.842Z,55.60
2018-02-17T01:01:34.398Z,38.63
2018-02-17T01:04:04.914Z,40.60
2018-02-17T01:06:33.508Z,42.47
2018-02-17T01:09:02.861Z,47.70
2018-02-17T01:11:31.435Z,34.33
2018-02-17T01:14:00.014Z,37.07
2018-02-17T01:16:28.661Z,46.73
2018-02-17T01:18:57.269Z,40.10
2018-02-17T01:21:26.608Z,44.77
2018-02-17T01:23:55.225Z,50.63
2018-02-17T01:26:23.792Z,53.67
2018-02-17T01:28:52.370Z,59.17
2018-02-17T01:31:20.962Z,52.53
2018-02-17T01:33:49.550Z,47.23
2018-02-17T01:36:19.185Z,47.33
2018-02-17T01:38:47.780Z,46.27
2018-02-17T01:41:16.361Z,50.67
2018-02-17T01:43:44.952Z,47.03
2018-02-17T01:46:13.339Z,48.30
2018-02-17T01:48:41.962Z,45.90
2018-02-17T01:51:11.314Z,52.10
2018-02-17T01:53:39.745Z,43.03
2018-02-17T01:56:08.312Z,49.10
2018-02-17T01:58:36.742Z,44.87
2018-02-17T02:01:05.342Z,40.17
2018-02-17T02:03:33.876Z,45.33
2018-02-17T02:06:03.232Z,43.60
2018-02-17T02:08:31.845Z,42.63
2018-02-17T02:11:00.433Z,43.07
2018-02-17T02:13:29.107Z,36.27
2018-02-17T02:15:57.663Z,40.30
2018-02-17T02:18:26.295Z,43.23
2018-02-17T02:20:54.875Z,36.17
2018-02-17T02:23:23.110Z,40.07
2018-02-17T02:25:51.700Z,40.87
2018-02-17T02:28:20.235Z,40.10
2018-02-17T02:30:49.123Z,42.35
2018-02-17T02:33:17.721Z,43.03
2018-02-17T02:35:46.344Z,40.53
2018-02-17T02:38:14.968Z,37.43
2018-02-17T02:40:43.571Z,39.87
2018-02-17T02:43:12.510Z,48.90
2018-02-17T02:45:41.346Z,39.15
2018-02-17T02:48:09.925Z,43.00
2018-02-17T02:50:38.513Z,41.63
2018-02-17T02:53:07.055Z,39.50
2018-02-17T02:55:35.617Z,37.30
2018-02-17T02:58:04.225Z,38.63
2018-02-17T03:00:32.997Z,35.20
2018-02-17T03:03:01.566Z,36.93
2018-02-17T03:05:30.148Z,35.27
2018-02-17T03:07:58.838Z,38.87
2018-02-17T03:10:27.436Z,31.33
2018-02-17T03:12:56.735Z,30.00
2018-02-17T03:15:25.201Z,28.37
2018-02-17T03:17:53.822Z,34.73
2018-02-17T03:20:22.260Z,27.60
2018-02-17T03:22:50.826Z,30.43
2018-02-17T03:25:19.403Z,34.10
2018-02-17T03:27:47.999Z,31.20
2018-02-17T03:30:16.608Z,32.40
2018-02-17T03:32:45.196Z,30.73
2018-02-17T03:35:13.786Z,30.40
2018-02-17T03:37:42.359Z,30.10
2018-02-17T03:40:10.956Z,29.70
2018-02-17T03:42:39.639Z,30.80
2018-02-17T03:45:08.233Z,23.60
2018-02-17T03:47:36.814Z,26.20
2018-02-17T03:50:05.042Z,30.60
2018-02-17T03:52:34.397Z,24.87
2018-02-17T03:55:02.960Z,31.03
2018-02-17T03:57:31.568Z,24.73
2018-02-17T04:00:00.248Z,33.30
2018-02-17T04:02:28.763Z,32.97
2018-02-17T04:04:57.340Z,24.93
2018-02-17T04:07:25.952Z,30.63
2018-02-17T04:09:55.310Z,30.73
2018-02-17T04:12:23.904Z,27.37
2018-02-17T04:14:52.439Z,34.57
2018-02-17T04:17:21.790Z,34.47
2018-02-17T04:19:50.328Z,33.30
2018-02-17T04:22:18.918Z,33.10
2018-02-17T04:24:47.504Z,30.87
2018-02-17T04:27:16.070Z,24.73
2018-02-17T04:29:44.609Z,24.07
2018-02-17T04:32:13.159Z,28.83
2018-02-17T04:34:41.756Z,28.67
2018-02-17T04:37:10.184Z,25.97
2018-02-17T04:42:54.984Z,33.40
2018-02-17T04:45:23.316Z,33.30
2018-02-17T04:47:54.298Z,30.47
2018-02-17T04:50:28.227Z,24.33
2018-02-17T04:56:03.916Z,29.37
2018-02-17T04:58:37.063Z,26.17
2018-02-17T05:01:11.147Z,26.33
2018-02-17T05:03:52.399Z,28.00
2018-02-17T05:09:26.535Z,28.03
2018-02-17T05:11:54.872Z,29.03
2018-02-17T05:14:23.185Z,29.87
2018-02-17T05:16:51.522Z,33.27
2018-02-17T05:19:23.361Z,27.27
2018-02-17T05:21:53.649Z,29.10
2018-02-17T05:24:24.879Z,28.47
2018-02-17T05:30:06.724Z,25.90
2018-02-17T05:35:45.725Z,33.00
2018-02-17T05:38:14.118Z,31.13
2018-02-17T05:40:48.163Z,25.30
2018-02-17T05:43:16.510Z,29.13
2018-02-17T05:48:56.547Z,32.90
2018-02-17T05:51:24.845Z,36.60
2018-02-17T05:53:53.339Z,30.90
2018-02-17T05:56:21.849Z,32.63
2018-02-17T05:58:51.086Z,28.20
2018-02-17T06:01:19.583Z,29.07
2018-02-17T06:03:48.053Z,28.40
2018-02-17T06:06:16.553Z,33.77
2018-02-17T06:08:45.046Z,26.83
2018-02-17T06:11:13.363Z,28.43
2018-02-17T06:13:41.695Z,29.40
2018-02-17T06:16:11.151Z,31.43
2018-02-17T06:18:39.661Z,27.00
2018-02-17T06:21:08.158Z,27.10
2018-02-17T06:23:36.626Z,27.17
2018-02-17T06:26:05.127Z,32.37
2018-02-17T06:28:33.592Z,27.57
2018-02-17T06:31:02.097Z,28.77
2018-02-17T06:33:30.603Z,31.43
2018-02-17T06:35:59.834Z,31.27
2018-02-17T06:38:28.340Z,30.20
2018-02-17T06:40:56.815Z,30.60
2018-02-17T06:43:25.326Z,35.70
2018-02-17T06:45:54.673Z,30.13
2018-02-17T06:48:23.140Z,30.23
2018-02-17T06:50:51.641Z,30.87
2018-02-17T06:53:22.349Z,32.15
2018-02-17T06:55:51.948Z,34.87
2018-02-17T06:58:20.550Z,28.03
2018-02-17T07:00:49.088Z,35.60
2018-02-17T07:03:17.671Z,37.03
2018-02-17T07:05:47.020Z,33.27
2018-02-17T07:08:15.594Z,31.53
2018-02-17T07:10:44.150Z,42.10
2018-02-17T07:13:13.493Z,34.30
2018-02-17T07:15:42.033Z,37.03
2018-02-17T07:18:10.581Z,36.10
2018-02-17T07:20:39.183Z,34.47
2018-02-17T07:23:07.757Z,33.97
2018-02-17T07:25:36.295Z,28.13
2018-02-17T07:28:04.714Z,36.27
2018-02-17T07:30:33.262Z,36.20
2018-02-17T07:33:01.854Z,39.53
2018-02-17T07:35:30.502Z,35.77
2018-02-17T07:37:59.106Z,33.97
2018-02-17T07:40:27.684Z,35.70
2018-02-17T07:42:55.622Z,33.33
2018-02-17T07:45:24.991Z,35.37
2018-02-17T07:47:53.584Z,34.43
2018-02-17T07:50:22.135Z,33.57
2018-02-17T07:52:50.736Z,32.93
2018-02-17T07:55:19.254Z,34.27
2018-02-17T07:57:48.814Z,34.83
2018-02-17T08:00:17.387Z,32.83
2018-02-17T08:02:45.917Z,30.83
2018-02-17T08:05:15.382Z,34.77
2018-02-17T08:07:44.906Z,36.50
2018-02-17T08:10:13.461Z,34.53
2018-02-17T08:12:42.224Z,33.40
2018-02-17T08:15:10.765Z,36.07
2018-02-17T08:17:39.335Z,31.70
2018-02-17T08:20:10.907Z,34.67
2018-02-17T08:22:39.462Z,34.03
2018-02-17T08:25:08.038Z,33.97
2018-02-17T08:27:36.613Z,32.53
2018-02-17T08:30:04.850Z,32.03
2018-02-17T08:32:33.392Z,32.97
2018-02-17T08:35:01.938Z,34.70
2018-02-17T08:37:30.583Z,36.17
2018-02-17T08:40:01.123Z,38.37
2018-02-17T08:42:29.725Z,34.20
2018-02-17T08:44:58.986Z,34.17
2018-02-17T08:47:27.586Z,35.40
2018-02-17T08:49:56.140Z,36.83
2018-02-17T08:52:34.654Z,34.43
2018-02-17T08:55:03.227Z,34.37
2018-02-17T08:57:31.777Z,29.60
2018-02-17T09:00:00.181Z,31.50
2018-02-17T09:02:28.678Z,28.70
2018-02-17T09:04:57.100Z,29.90
2018-02-17T09:07:25.600Z,30.70
2018-02-17T09:09:54.206Z,28.87
2018-02-17T09:12:24.568Z,35.47
2018-02-17T09:14:54.763Z,25.13
2018-02-17T09:17:23.351Z,33.90
2018-02-17T09:19:51.874Z,31.37
2018-02-17T09:22:20.374Z,31.47
2018-02-17T09:24:49.084Z,26.13
2018-02-17T09:27:17.597Z,28.50
2018-02-17T09:29:46.192Z,26.67
2018-02-17T09:32:14.630Z,28.07
2018-02-17T09:34:43.196Z,29.57
2018-02-17T09:37:11.772Z,30.63
2018-02-17T09:39:41.200Z,28.90
2018-02-17T09:42:09.726Z,24.63
2018-02-17T09:44:38.278Z,31.73
2018-02-17T09:47:06.800Z,27.83
2018-02-17T09:49:35.370Z,25.07
2018-02-17T09:52:03.958Z,25.53
2018-02-17T09:54:32.526Z,25.40
2018-02-17T09:57:01.092Z,27.40
2018-02-17T09:59:29.615Z,26.80
2018-02-17T10:01:59.186Z,22.93
2018-02-17T10:04:27.741Z,24.23
2018-02-17T10:06:57.014Z,28.37
2018-02-17T10:09:26.495Z,30.67
2018-02-17T10:11:55.205Z,24.57
2018-02-17T10:14:24.527Z,29.33
2018-02-17T10:16:54.054Z,24.93
2018-02-17T10:19:22.644Z,28.90
2018-02-17T10:21:51.189Z,26.03
2018-02-17T10:24:19.759Z,24.70
2018-02-17T10:26:49.062Z,21.47
2018-02-17T10:29:19.578Z,25.17
2018-02-17T10:31:48.102Z,21.37
2018-02-17T10:34:16.917Z,22.30
2018-02-17T10:36:45.460Z,27.10
2018-02-17T10:39:13.995Z,22.10
2018-02-17T10:41:42.583Z,25.50
2018-02-17T10:44:10.918Z,26.57
2018-02-17T10:46:39.476Z,27.73
2018-02-17T10:49:08.069Z,27.40
2018-02-17T10:51:36.586Z,31.83
2018-02-17T10:54:05.384Z,26.57
2018-02-17T10:56:34.088Z,27.07
2018-02-17T10:59:02.656Z,25.10
2018-02-17T11:01:33.235Z,25.60
2018-02-17T11:04:01.825Z,22.13
2018-02-17T11:06:30.531Z,27.83
2018-02-17T11:08:59.211Z,26.07
2018-02-17T11:11:27.755Z,28.10
2018-02-17T11:13:56.335Z,29.33
2018-02-17T11:16:25.667Z,28.53
2018-02-17T11:18:54.165Z,25.90
2018-02-17T11:21:22.776Z,24.50
2018-02-17T11:23:55.970Z,23.30
2018-02-17T11:26:24.872Z,18.40
2018-02-17T11:28:53.317Z,24.33
2018-02-17T11:31:34.393Z,23.40
2018-02-17T11:34:02.959Z,20.03
2018-02-17T11:36:31.540Z,20.83
2018-02-17T11:39:00.096Z,28.20
2018-02-17T11:41:28.657Z,22.13
2018-02-17T11:43:57.259Z,19.93
2018-02-17T11:46:25.888Z,19.77
2018-02-17T11:48:54.443Z,22.83
2018-02-17T11:51:23.014Z,16.83
2018-02-17T11:53:51.596Z,18.63
2018-02-17T11:56:24.062Z,19.40
2018-02-17T11:58:52.639Z,18.77
2018-02-17T12:01:21.216Z,19.27
2018-02-17T12:03:49.779Z,15.50
2018-02-17T12:06:18.339Z,16.30
2018-02-17T12:08:46.867Z,19.23
2018-02-17T12:11:15.447Z,19.87
2018-02-17T12:13:53.685Z,15.30
2018-02-17T12:16:23.034Z,18.03
2018-02-17T12:18:52.198Z,14.90
2018-02-17T12:21:21.527Z,16.87
2018-02-17T12:23:50.101Z,21.07
2018-02-17T12:26:18.898Z,22.20
2018-02-17T12:28:47.434Z,14.87
2018-02-17T12:31:16.022Z,20.20
2018-02-17T12:33:45.412Z,17.63
2018-02-17T12:36:14.009Z,21.60
2018-02-17T12:38:43.304Z,20.73
2018-02-17T12:41:11.851Z,16.77
2018-02-17T12:43:40.375Z,17.30
2018-02-17T12:46:09.720Z,20.83
2018-02-17T12:48:38.236Z,16.10
2018-02-17T12:51:06.778Z,20.40
2018-02-17T12:53:36.132Z,19.13
2018-02-17T12:56:04.662Z,16.77
2018-02-17T12:58:33.235Z,19.20
2018-02-17T13:01:01.828Z,17.13
2018-02-17T13:03:30.465Z,12.77
2018-02-17T13:05:59.011Z,19.30
2018-02-17T13:08:27.417Z,16.43
2018-02-17T13:10:55.946Z,17.97
2018-02-17T13:13:24.500Z,41.87
2018-02-17T13:15:53.054Z,25.37
2018-02-17T13:18:21.564Z,20.07
2018-02-17T13:20:50.917Z,15.37
2018-02-17T13:23:19.486Z,17.30
2018-02-17T13:25:48.113Z,17.07
2018-02-17T13:28:25.899Z,16.17
2018-02-17T13:30:54.404Z,15.50
2018-02-17T13:33:23.750Z,15.63
2018-02-17T13:35:52.322Z,18.40
2018-02-17T13:38:20.875Z,14.37
2018-02-17T13:40:49.416Z,19.63
2018-02-17T13:43:18.164Z,17.80
2018-02-17T13:45:47.468Z,18.63
2018-02-17T13:48:16.778Z,20.50
2018-02-17T13:50:45.335Z,28.07
2018-02-17T13:53:14.748Z,23.40
2018-02-17T13:55:44.146Z,25.53
2018-02-17T13:58:13.458Z,27.20
2018-02-17T14:00:42.321Z,19.43
2018-02-17T14:03:10.851Z,19.10
2018-02-17T14:05:39.417Z,20.57
2018-02-17T14:08:07.996Z,20.80
2018-02-17T14:10:37.267Z,20.87
2018-02-17T14:13:05.811Z,20.27
2018-02-17T14:15:34.391Z,20.47
2018-02-17T14:18:02.963Z,18.47
2018-02-17T14:20:32.504Z,20.17
2018-02-17T14:23:01.075Z,23.03
2018-02-17T14:25:29.639Z,22.10
2018-02-17T14:27:58.208Z,23.00
2018-02-17T14:30:26.723Z,20.77
2018-02-17T14:32:55.393Z,21.10
2018-02-17T14:35:23.939Z,21.63
2018-02-17T14:38:05.250Z,25.10
2018-02-17T14:40:33.834Z,27.63
2018-02-17T14:43:02.236Z,25.57
2018-02-17T14:45:30.789Z,23.73
2018-02-17T14:47:59.364Z,24.43
2018-02-17T14:50:27.907Z,23.40
2018-02-17T14:52:56.459Z,25.00
2018-02-17T14:55:24.843Z,26.93
2018-02-17T14:57:53.232Z,24.27
2018-02-17T15:00:22.760Z,21.90
2018-02-17T15:02:52.107Z,29.77
2018-02-17T15:05:20.626Z,22.60
2018-02-17T15:07:49.197Z,27.33
2018-02-17T15:10:17.945Z,28.10
2018-02-17T15:12:46.500Z,27.37
2018-02-17T15:15:15.829Z,27.13
2018-02-17T15:17:44.393Z,29.47
2018-02-17T15:20:13.708Z,21.30
2018-02-17T15:22:42.248Z,26.53
2018-02-17T15:25:11.567Z,25.97
2018-02-17T15:27:40.902Z,30.90
2018-02-17T15:30:11.232Z,21.87
2018-02-17T15:32:39.771Z,23.33
2018-02-17T15:35:08.350Z,25.87
2018-02-17T15:37:40.484Z,26.33
2018-02-17T15:40:08.991Z,27.50
2018-02-17T15:42:37.618Z,30.93
2018-02-17T15:45:06.107Z,23.40
2018-02-17T15:47:34.662Z,22.17
2018-02-17T15:50:04.029Z,40.00
2018-02-17T15:52:32.609Z,38.47
2018-02-17T15:55:01.222Z,58.73
2018-02-17T15:57:29.743Z,37.53
2018-02-17T15:59:58.292Z,29.70
2018-02-17T16:02:26.907Z,28.20
2018-02-17T16:04:56.319Z,26.53
2018-02-17T16:07:24.888Z,24.10
2018-02-17T16:09:53.295Z,25.30
2018-02-17T16:12:21.702Z,24.83
2018-02-17T16:14:50.049Z,35.23
2018-02-17T16:17:18.444Z,27.00
2018-02-17T16:19:46.792Z,28.53
2018-02-17T16:22:15.481Z,23.63
2018-02-17T16:24:44.006Z,28.30
2018-02-17T16:27:12.634Z,26.53
2018-02-17T16:29:41.221Z,30.47
2018-02-17T16:32:10.797Z,24.23
2018-02-17T16:34:40.318Z,33.40
2018-02-17T16:37:08.847Z,38.53
2018-02-17T16:39:37.399Z,30.50
2018-02-17T16:42:05.904Z,29.93
2018-02-17T16:44:34.495Z,29.07
2018-02-17T16:47:03.083Z,33.20
2018-02-17T16:49:31.672Z,33.43
2018-02-17T16:52:00.275Z,63.27
2018-02-17T16:54:47.795Z,58.57
2018-02-17T16:57:16.387Z,110.47
2018-02-17T16:59:45.684Z,120.83
2018-02-17T17:02:15.025Z,151.93
2018-02-17T17:04:43.722Z,46.50
2018-02-17T17:07:12.282Z,71.43
2018-02-17T17:09:40.860Z,65.33
2018-02-17T17:12:09.392Z,74.50
2018-02-17T17:14:37.953Z,56.77
2018-02-17T17:17:07.266Z,66.97
2018-02-17T17:19:35.771Z,79.63
2018-02-17T17:22:04.337Z,71.87
2018-02-17T17:24:32.942Z,80.40
2018-02-17T17:27:06.250Z,87.03
2018-02-17T17:29:35.434Z,65.77
2018-02-17T17:32:03.797Z,61.43
2018-02-17T17:34:33.538Z,56.17
2018-02-17T17:37:02.858Z,55.33
2018-02-17T17:39:31.398Z,57.80
2018-02-17T17:41:59.996Z,45.43
2018-02-17T17:44:29.316Z,47.83
2018-02-17T17:47:03.734Z,58.80
2018-02-17T17:49:33.029Z,64.03
2018-02-17T17:52:02.376Z,50.37
2018-02-17T17:54:30.952Z,49.27
2018-02-17T17:56:59.511Z,47.83
2018-02-17T17:59:28.045Z,44.27
2018-02-17T18:01:56.601Z,44.23
2018-02-17T18:04:25.118Z,56.47
2018-02-17T18:06:53.706Z,42.20
2018-02-17T18:09:23.008Z,40.97
2018-02-17T18:11:52.343Z,56.07
2018-02-17T18:14:27.203Z,53.10
2018-02-17T18:16:55.768Z,53.40
2018-02-17T18:19:27.270Z,50.37
2018-02-17T18:21:55.844Z,45.33
2018-02-17T18:24:24.422Z,45.03
2018-02-17T18:26:53.002Z,39.13
2018-02-17T18:29:21.578Z,46.70
2018-02-17T18:31:50.144Z,44.70
2018-02-17T18:34:18.782Z,47.93
2018-02-17T18:36:48.122Z,34.10
2018-02-17T18:39:16.749Z,35.93
2018-02-17T18:41:45.456Z,44.43
2018-02-17T18:44:14.177Z,35.43
2018-02-17T18:46:44.655Z,36.43
2018-02-17T18:49:13.995Z,37.30
2018-02-17T18:51:42.587Z,36.23
2018-02-17T18:54:17.230Z,48.07
2018-02-17T18:56:51.326Z,65.47
2018-02-17T18:59:19.998Z,42.17
2018-02-17T19:01:48.528Z,38.00
2018-02-17T19:04:17.095Z,37.07
2018-02-17T19:06:45.594Z,38.67
2018-02-17T19:09:14.009Z,37.07
2018-02-17T19:11:45.213Z,39.27
2018-02-17T19:14:13.622Z,42.00
2018-02-17T19:16:42.894Z,47.27
2018-02-17T19:19:15.846Z,38.73
2018-02-17T19:21:44.399Z,48.60
2018-02-17T19:24:12.910Z,35.33
2018-02-17T19:26:41.501Z,42.33
2018-02-17T19:29:10.047Z,36.67
2018-02-17T19:31:39.351Z,39.77
2018-02-17T19:34:08.672Z,36.80
2018-02-17T19:36:39.217Z,38.47
2018-02-17T19:39:07.787Z,41.73
2018-02-17T19:41:36.350Z,45.73
2018-02-17T19:44:11.331Z,50.33
2018-02-17T19:46:39.841Z,48.60
2018-02-17T19:49:08.601Z,48.77
2018-02-17T19:51:37.199Z,46.13
2018-02-17T19:54:05.769Z,42.23
2018-02-17T19:56:34.270Z,46.07
2018-02-17T19:59:02.882Z,52.60
2018-02-17T20:01:31.500Z,55.30
2018-02-17T20:04:00.089Z,58.27
2018-02-17T20:06:28.635Z,45.30
2018-02-17T20:08:57.194Z,47.83
2018-02-17T20:11:26.529Z,50.70
2018-02-17T20:13:55.154Z,57.50
2018-02-17T20:16:28.386Z,58.13
2018-02-17T20:18:56.970Z,75.00
2018-02-17T20:21:26.347Z,62.80
2018-02-17T20:23:54.879Z,56.07
2018-02-17T20:26:24.220Z,60.53
2018-02-17T20:28:52.820Z,64.20
2018-02-17T20:31:21.473Z,61.67
2018-02-17T20:33:50.114Z,51.60
2018-02-17T20:36:18.630Z,44.43
2018-02-17T20:38:49.453Z,43.13
2018-02-17T20:41:19.052Z,49.03
2018-02-17T20:43:47.681Z,45.00
2018-02-17T20:46:16.231Z,80.03
2018-02-17T20:48:44.867Z,46.93
2018-02-17T20:51:13.582Z,49.33
2018-02-17T20:53:42.118Z,53.40
2018-02-17T20:56:10.701Z,62.10
2018-02-17T20:58:39.403Z,78.97
2018-02-17T21:01:08.247Z,62.28
2018-02-17T21:03:36.912Z,53.37
2018-02-17T21:06:05.470Z,52.83
2018-02-17T21:08:34.818Z,55.47
2018-02-17T21:11:03.435Z,52.50
2018-02-17T21:13:32.004Z,57.57
2018-02-17T21:16:00.562Z,67.33
2018-02-17T21:18:30.119Z,66.90
2018-02-17T21:20:58.911Z,72.93
2018-02-17T21:23:27.697Z,75.37
2018-02-17T21:25:57.015Z,87.60
2018-02-17T21:28:26.323Z,82.63
2018-02-17T21:30:54.934Z,142.23
2018-02-17T21:33:23.986Z,93.10
2018-02-17T21:35:53.319Z,79.63
2018-02-17T21:38:21.865Z,92.17
2018-02-17T21:40:50.663Z,73.55
2018-02-17T21:43:19.519Z,77.30
2018-02-17T21:45:48.362Z,67.15
2018-02-17T21:48:17.952Z,78.85
2018-02-17T21:50:46.820Z,68.55
2018-02-17T21:53:15.672Z,71.65
2018-02-17T21:55:44.509Z,61.10
2018-02-17T21:58:13.408Z,70.53
2018-02-17T22:00:42.295Z,64.68
2018-02-17T22:03:11.128Z,62.58
2018-02-17T22:05:39.972Z,70.80
2018-02-17T22:08:08.795Z,67.15
2018-02-17T22:10:37.340Z,60.77
2018-02-17T22:13:06.151Z,58.63
2018-02-17T22:15:35.752Z,67.70
2018-02-17T22:18:04.651Z,59.67
2018-02-17T22:20:33.451Z,53.17
2018-02-17T22:23:03.059Z,59.28
2018-02-17T22:25:31.956Z,56.22
2018-02-17T22:28:00.970Z,52.67
2018-02-17T22:30:29.798Z,54.65
2018-02-17T22:32:58.638Z,59.97
2018-02-17T22:35:27.323Z,66.00
2018-02-17T22:37:56.161Z,76.12
2018-02-17T22:40:25.962Z,64.68
2018-02-17T22:42:54.861Z,64.15
2018-02-17T22:45:23.859Z,56.92
2018-02-17T22:47:52.566Z,57.20
2018-02-17T22:50:21.403Z,57.70
2018-02-17T22:52:50.209Z,60.58
2018-02-17T22:55:20.753Z,54.97
2018-02-17T22:57:49.612Z,54.75
2018-02-17T23:00:29.657Z,68.90
2018-02-17T23:02:58.533Z,58.50
2018-02-17T23:05:27.551Z,60.63
2018-02-17T23:07:56.552Z,59.75
2018-02-17T23:10:25.365Z,55.33
2018-02-17T23:12:54.068Z,66.05
2018-02-17T23:15:22.932Z,63.70
2018-02-17T23:17:51.754Z,61.63
2018-02-17T23:20:21.355Z,64.05
2018-02-17T23:22:50.667Z,58.60
2018-02-17T23:25:19.503Z,63.38
2018-02-17T23:27:48.343Z,72.78
2018-02-17T23:30:17.918Z,72.75
2018-02-17T23:32:46.752Z,66.12
2018-02-17T23:35:15.559Z,65.60
2018-02-17T23:37:44.411Z,61.95
2018-02-17T23:40:13.317Z,76.90
2018-02-17T23:42:42.157Z,66.32
2018-02-17T23:45:11.006Z,73.78
2018-02-17T23:47:39.843Z,69.75
2018-02-17T23:50:08.721Z,63.03
2018-02-17T23:52:37.325Z,59.15
2018-02-17T23:55:06.171Z,72.47
2018-02-17T23:57:34.995Z,65.65
